sensor_id;sensor_type;location;lat;lon;timestamp;pressure;altitude;pressure_sealevel;temperature;humidity
58295;BME280;45705;55.592;37.460;2023-01-27T00:00:25;99405.53;;;-2.59;100.00
58295;BME280;45705;55.592;37.460;2023-01-27T00:02:51;99403.13;;;-2.67;100.00
58295;BME280;45705;55.592;37.460;2023-01-27T00:05:17;99406.31;;;-2.51;100.00
58295;BME280;45705;55.592;37.460;2023-01-27T00:07:43;99408.84;;;-2.63;100.00
58295;BME280;45705;55.592;37.460;2023-01-27T00:10:18;99377.88;;;-2.83;100.00
58295;BME280;45705;55.592;37.460;2023-01-27T00:12:44;99407.88;;;-2.75;100.00
58295;BME280;45705;55.592;37.460;2023-01-27T00:15:30;99410.81;;;-2.52;100.00
58295;BME280;45705;55.592;37.460;2023-01-27T00:17:56;99414.03;;;-2.75;100.00
58295;BME280;45705;55.592;37.460;2023-01-27T00:20:22;99411.31;;;-2.68;100.00
58295;BME280;45705;55.592;37.460;2023-01-27T00:23:19;99409.19;;;-2.85;100.00
58295;BME280;45705;55.592;37.460;2023-01-27T00:26:05;99409.56;;;-2.81;100.00
58295;BME280;45705;55.592;37.460;2023-01-27T00:28:32;99386.84;;;-2.84;100.00
58295;BME280;45705;55.592;37.460;2023-01-27T00:33:53;99405.59;;;-2.72;100.00
58295;BME280;45705;55.592;37.460;2023-01-27T00:36:22;99400.06;;;-2.70;100.00
58295;BME280;45705;55.592;37.460;2023-01-27T00:38:47;99378.59;;;-2.75;100.00
58295;BME280;45705;55.592;37.460;2023-01-27T00:41:13;99399.91;;;-2.75;100.00
58295;BME280;45705;55.592;37.460;2023-01-27T00:43:40;99401.28;;;-2.98;100.00
58295;BME280;45705;55.592;37.460;2023-01-27T00:46:06;99401.53;;;-2.74;100.00
58295;BME280;45705;55.592;37.460;2023-01-27T00:48:32;99400.28;;;-2.72;100.00
58295;BME280;45705;55.592;37.460;2023-01-27T00:50:58;99401.22;;;-2.91;100.00
58295;BME280;45705;55.592;37.460;2023-01-27T00:53:24;99396.22;;;-2.74;100.00
58295;BME280;45705;55.592;37.460;2023-01-27T00:55:51;99393.13;;;-3.03;100.00
58295;BME280;45705;55.592;37.460;2023-01-27T00:58:17;99394.16;;;-3.04;100.00
58295;BME280;45705;55.592;37.460;2023-01-27T01:00:43;99394.25;;;-2.86;100.00
58295;BME280;45705;55.592;37.460;2023-01-27T01:03:09;99392.09;;;-3.02;100.00
58295;BME280;45705;55.592;37.460;2023-01-27T01:05:35;99388.44;;;-2.76;100.00
58295;BME280;45705;55.592;37.460;2023-01-27T01:08:01;99389.06;;;-3.12;100.00
58295;BME280;45705;55.592;37.460;2023-01-27T01:10:28;99379.47;;;-2.82;100.00
58295;BME280;45705;55.592;37.460;2023-01-27T01:12:53;99382.31;;;-2.77;100.00
58295;BME280;45705;55.592;37.460;2023-01-27T01:15:19;99376.41;;;-2.79;100.00
58295;BME280;45705;55.592;37.460;2023-01-27T01:17:45;99377.09;;;-2.90;100.00
58295;BME280;45705;55.592;37.460;2023-01-27T01:20:11;99379.94;;;-2.91;100.00
58295;BME280;45705;55.592;37.460;2023-01-27T01:22:37;99381.53;;;-2.84;100.00
58295;BME280;45705;55.592;37.460;2023-01-27T01:25:04;99380.72;;;-2.84;100.00
58295;BME280;45705;55.592;37.460;2023-01-27T01:27:30;99379.84;;;-2.71;100.00
58295;BME280;45705;55.592;37.460;2023-01-27T01:29:55;99379.94;;;-2.85;100.00
58295;BME280;45705;55.592;37.460;2023-01-27T01:32:21;99383.69;;;-2.67;100.00
58295;BME280;45705;55.592;37.460;2023-01-27T01:34:47;99379.44;;;-2.75;100.00
58295;BME280;45705;55.592;37.460;2023-01-27T01:37:15;99373.50;;;-3.02;100.00
58295;BME280;45705;55.592;37.460;2023-01-27T01:39:41;99375.03;;;-2.88;100.00
58295;BME280;45705;55.592;37.460;2023-01-27T01:42:06;99367.13;;;-3.01;100.00
58295;BME280;45705;55.592;37.460;2023-01-27T01:44:32;99378.81;;;-3.02;100.00
58295;BME280;45705;55.592;37.460;2023-01-27T01:46:59;99387.88;;;-3.17;100.00
58295;BME280;45705;55.592;37.460;2023-01-27T01:49:34;99381.63;;;-2.97;100.00
58295;BME280;45705;55.592;37.460;2023-01-27T01:52:08;99376.47;;;-3.24;100.00
58295;BME280;45705;55.592;37.460;2023-01-27T01:54:40;99373.56;;;-3.15;100.00
58295;BME280;45705;55.592;37.460;2023-01-27T01:57:20;99379.75;;;-3.28;100.00
58295;BME280;45705;55.592;37.460;2023-01-27T02:02:20;99372.50;;;-3.14;100.00
58295;BME280;45705;55.592;37.460;2023-01-27T02:04:54;99372.69;;;-3.09;100.00
58295;BME280;45705;55.592;37.460;2023-01-27T02:07:33;99376.31;;;-2.97;100.00
58295;BME280;45705;55.592;37.460;2023-01-27T02:10:02;99369.50;;;-2.93;100.00
58295;BME280;45705;55.592;37.460;2023-01-27T02:12:29;99380.88;;;-3.04;100.00
58295;BME280;45705;55.592;37.460;2023-01-27T02:14:55;99374.75;;;-3.11;100.00
58295;BME280;45705;55.592;37.460;2023-01-27T02:17:21;99363.88;;;-3.03;100.00
58295;BME280;45705;55.592;37.460;2023-01-27T02:25:13;99353.47;;;-3.11;100.00
58295;BME280;45705;55.592;37.460;2023-01-27T02:27:41;99359.13;;;-2.94;100.00
58295;BME280;45705;55.592;37.460;2023-01-27T02:30:08;99358.34;;;-3.08;100.00
58295;BME280;45705;55.592;37.460;2023-01-27T02:32:34;99363.97;;;-2.85;100.00
58295;BME280;45705;55.592;37.460;2023-01-27T02:35:00;99364.19;;;-2.93;100.00
58295;BME280;45705;55.592;37.460;2023-01-27T02:37:27;99355.00;;;-2.90;100.00
58295;BME280;45705;55.592;37.460;2023-01-27T02:39:54;99356.56;;;-2.83;100.00
58295;BME280;45705;55.592;37.460;2023-01-27T02:42:22;99352.34;;;-2.97;100.00
58295;BME280;45705;55.592;37.460;2023-01-27T02:44:48;99356.75;;;-3.09;100.00
58295;BME280;45705;55.592;37.460;2023-01-27T02:47:14;99359.88;;;-3.19;100.00
58295;BME280;45705;55.592;37.460;2023-01-27T02:49:40;99357.41;;;-3.14;100.00
58295;BME280;45705;55.592;37.460;2023-01-27T02:52:07;99347.09;;;-3.42;100.00
58295;BME280;45705;55.592;37.460;2023-01-27T02:54:33;99347.81;;;-3.22;100.00
58295;BME280;45705;55.592;37.460;2023-01-27T02:57:00;99350.03;;;-3.19;100.00
58295;BME280;45705;55.592;37.460;2023-01-27T02:59:28;99338.31;;;-3.04;100.00
58295;BME280;45705;55.592;37.460;2023-01-27T03:01:54;99348.13;;;-3.05;100.00
58295;BME280;45705;55.592;37.460;2023-01-27T03:04:19;99346.19;;;-3.23;100.00
58295;BME280;45705;55.592;37.460;2023-01-27T03:06:45;99344.00;;;-3.01;100.00
58295;BME280;45705;55.592;37.460;2023-01-27T03:09:11;99347.25;;;-2.99;100.00
58295;BME280;45705;55.592;37.460;2023-01-27T03:11:37;99349.50;;;-3.27;100.00
58295;BME280;45705;55.592;37.460;2023-01-27T03:14:22;99353.22;;;-3.35;100.00
58295;BME280;45705;55.592;37.460;2023-01-27T03:17:06;99354.34;;;-3.18;100.00
58295;BME280;45705;55.592;37.460;2023-01-27T03:19:51;99359.72;;;-3.31;100.00
58295;BME280;45705;55.592;37.460;2023-01-27T03:22:17;99354.34;;;-3.18;100.00
58295;BME280;45705;55.592;37.460;2023-01-27T03:24:44;99361.25;;;-3.10;100.00
58295;BME280;45705;55.592;37.460;2023-01-27T03:27:10;99363.84;;;-3.35;100.00
58295;BME280;45705;55.592;37.460;2023-01-27T03:29:56;99358.53;;;-3.35;100.00
58295;BME280;45705;55.592;37.460;2023-01-27T03:32:28;99361.00;;;-3.40;100.00
58295;BME280;45705;55.592;37.460;2023-01-27T03:35:20;99352.41;;;-3.42;100.00
58295;BME280;45705;55.592;37.460;2023-01-27T03:37:48;99350.41;;;-3.47;100.00
58295;BME280;45705;55.592;37.460;2023-01-27T03:40:33;99352.69;;;-3.19;100.00
58295;BME280;45705;55.592;37.460;2023-01-27T03:43:18;99346.44;;;-3.31;100.00
58295;BME280;45705;55.592;37.460;2023-01-27T03:46:03;99349.16;;;-3.44;100.00
58295;BME280;45705;55.592;37.460;2023-01-27T03:48:51;99346.31;;;-3.49;100.00
58295;BME280;45705;55.592;37.460;2023-01-27T03:51:20;99352.53;;;-3.62;100.00
58295;BME280;45705;55.592;37.460;2023-01-27T03:53:46;99346.31;;;-3.49;100.00
58295;BME280;45705;55.592;37.460;2023-01-27T03:56:12;99345.84;;;-3.33;100.00
58295;BME280;45705;55.592;37.460;2023-01-27T03:58:38;99347.44;;;-3.32;100.00
58295;BME280;45705;55.592;37.460;2023-01-27T04:01:17;99352.53;;;-3.24;100.00
58295;BME280;45705;55.592;37.460;2023-01-27T04:03:43;99361.28;;;-3.17;100.00
58295;BME280;45705;55.592;37.460;2023-01-27T04:06:30;99363.06;;;-3.42;100.00
58295;BME280;45705;55.592;37.460;2023-01-27T04:09:35;99357.88;;;-3.30;100.00
58295;BME280;45705;55.592;37.460;2023-01-27T04:12:03;99364.50;;;-3.46;100.00
58295;BME280;45705;55.592;37.460;2023-01-27T04:17:03;99354.13;;;-3.61;100.00
58295;BME280;45705;55.592;37.460;2023-01-27T04:19:30;99358.53;;;-3.35;100.00
58295;BME280;45705;55.592;37.460;2023-01-27T04:21:56;99353.59;;;-3.31;100.00
58295;BME280;45705;55.592;37.460;2023-01-27T04:24:22;99359.34;;;-3.34;100.00
58295;BME280;45705;55.592;37.460;2023-01-27T04:26:50;99359.16;;;-3.40;100.00
58295;BME280;45705;55.592;37.460;2023-01-27T04:29:16;99361.59;;;-3.38;100.00
58295;BME280;45705;55.592;37.460;2023-01-27T04:31:42;99370.63;;;-3.39;100.00
58295;BME280;45705;55.592;37.460;2023-01-27T04:34:09;99381.41;;;-3.34;100.00
58295;BME280;45705;55.592;37.460;2023-01-27T04:36:35;99370.38;;;-3.31;100.00
58295;BME280;45705;55.592;37.460;2023-01-27T04:39:01;99371.97;;;-3.23;100.00
58295;BME280;45705;55.592;37.460;2023-01-27T04:41:26;99373.81;;;-3.24;100.00
58295;BME280;45705;55.592;37.460;2023-01-27T04:43:52;99375.31;;;-3.41;100.00
58295;BME280;45705;55.592;37.460;2023-01-27T04:46:18;99372.78;;;-3.23;100.00
58295;BME280;45705;55.592;37.460;2023-01-27T04:48:44;99371.50;;;-3.13;100.00
58295;BME280;45705;55.592;37.460;2023-01-27T04:51:10;99381.34;;;-3.21;100.00
58295;BME280;45705;55.592;37.460;2023-01-27T04:53:35;99381.53;;;-3.15;100.00
58295;BME280;45705;55.592;37.460;2023-01-27T04:56:04;99384.66;;;-3.25;100.00
58295;BME280;45705;55.592;37.460;2023-01-27T04:58:31;99389.47;;;-3.09;100.00
58295;BME280;45705;55.592;37.460;2023-01-27T05:00:57;99381.34;;;-3.14;100.00
58295;BME280;45705;55.592;37.460;2023-01-27T05:03:23;99383.00;;;-3.20;100.00
58295;BME280;45705;55.592;37.460;2023-01-27T05:05:49;99389.53;;;-3.22;100.00
58295;BME280;45705;55.592;37.460;2023-01-27T05:08:15;99388.38;;;-3.33;100.00
58295;BME280;45705;55.592;37.460;2023-01-27T05:10:44;99384.41;;;-3.17;100.00
58295;BME280;45705;55.592;37.460;2023-01-27T05:13:10;99383.25;;;-2.96;100.00
58295;BME280;45705;55.592;37.460;2023-01-27T05:15:36;99383.34;;;-3.09;100.00
58295;BME280;45705;55.592;37.460;2023-01-27T05:18:02;99391.31;;;-3.09;100.00
58295;BME280;45705;55.592;37.460;2023-01-27T05:20:28;99394.69;;;-2.89;100.00
58295;BME280;45705;55.592;37.460;2023-01-27T05:22:56;99395.25;;;-3.19;100.00
58295;BME280;45705;55.592;37.460;2023-01-27T05:25:43;99397.28;;;-3.14;100.00
58295;BME280;45705;55.592;37.460;2023-01-27T05:28:10;99406.88;;;-3.06;100.00
58295;BME280;45705;55.592;37.460;2023-01-27T05:30:35;99405.56;;;-2.97;100.00
58295;BME280;45705;55.592;37.460;2023-01-27T05:33:01;99407.81;;;-3.01;100.00
58295;BME280;45705;55.592;37.460;2023-01-27T05:35:27;99413.94;;;-2.93;100.00
58295;BME280;45705;55.592;37.460;2023-01-27T05:37:56;99413.47;;;-2.84;100.00
58295;BME280;45705;55.592;37.460;2023-01-27T05:40:22;99412.31;;;-2.94;100.00
58295;BME280;45705;55.592;37.460;2023-01-27T05:42:50;99415.22;;;-3.03;100.00
58295;BME280;45705;55.592;37.460;2023-01-27T05:45:16;99418.00;;;-2.91;100.00
58295;BME280;45705;55.592;37.460;2023-01-27T05:47:42;99407.38;;;-2.91;100.00
58295;BME280;45705;55.592;37.460;2023-01-27T05:50:08;99420.16;;;-2.74;100.00
58295;BME280;45705;55.592;37.460;2023-01-27T05:52:34;99414.75;;;-2.93;100.00
58295;BME280;45705;55.592;37.460;2023-01-27T05:55:00;99415.59;;;-2.99;100.00
58295;BME280;45705;55.592;37.460;2023-01-27T05:57:26;99416.00;;;-2.95;100.00
58295;BME280;45705;55.592;37.460;2023-01-27T05:59:51;99416.22;;;-2.65;100.00
58295;BME280;45705;55.592;37.460;2023-01-27T06:02:17;99421.38;;;-2.70;100.00
58295;BME280;45705;55.592;37.460;2023-01-27T06:04:43;99433.00;;;-2.97;100.00
58295;BME280;45705;55.592;37.460;2023-01-27T06:07:08;99429.63;;;-2.85;100.00
58295;BME280;45705;55.592;37.460;2023-01-27T06:09:34;99433.22;;;-2.98;100.00
58295;BME280;45705;55.592;37.460;2023-01-27T06:12:02;99424.09;;;-2.84;100.00
58295;BME280;45705;55.592;37.460;2023-01-27T06:14:28;99426.69;;;-3.02;100.00
58295;BME280;45705;55.592;37.460;2023-01-27T06:16:54;99433.56;;;-2.88;100.00
58295;BME280;45705;55.592;37.460;2023-01-27T06:19:19;99438.41;;;-2.78;100.00
58295;BME280;45705;55.592;37.460;2023-01-27T06:21:45;99421.28;;;-2.89;100.00
58295;BME280;45705;55.592;37.460;2023-01-27T06:24:11;99430.09;;;-2.95;100.00
58295;BME280;45705;55.592;37.460;2023-01-27T06:26:36;99426.34;;;-2.81;100.00
58295;BME280;45705;55.592;37.460;2023-01-27T06:29:02;99431.88;;;-2.82;100.00
58295;BME280;45705;55.592;37.460;2023-01-27T06:31:28;99429.16;;;-2.69;100.00
58295;BME280;45705;55.592;37.460;2023-01-27T06:33:53;99423.84;;;-2.75;100.00
58295;BME280;45705;55.592;37.460;2023-01-27T06:36:20;99428.19;;;-2.81;100.00
58295;BME280;45705;55.592;37.460;2023-01-27T06:38:47;99427.38;;;-2.82;100.00
58295;BME280;45705;55.592;37.460;2023-01-27T06:41:13;99416.47;;;-2.73;100.00
58295;BME280;45705;55.592;37.460;2023-01-27T06:43:39;99430.09;;;-2.95;100.00
58295;BME280;45705;55.592;37.460;2023-01-27T06:46:05;99424.44;;;-2.73;100.00
58295;BME280;45705;55.592;37.460;2023-01-27T06:48:32;99437.47;;;-2.97;100.00
58295;BME280;45705;55.592;37.460;2023-01-27T06:50:58;99432.63;;;-2.68;100.00
58295;BME280;45705;55.592;37.460;2023-01-27T06:53:24;99425.75;;;-2.51;100.00
58295;BME280;45705;55.592;37.460;2023-01-27T06:55:57;99427.63;;;-2.58;100.00
58295;BME280;45705;55.592;37.460;2023-01-27T06:58:23;99431.84;;;-2.44;100.00
58295;BME280;45705;55.592;37.460;2023-01-27T07:00:50;99429.44;;;-2.52;100.00
58295;BME280;45705;55.592;37.460;2023-01-27T07:03:16;99428.69;;;-2.66;100.00
58295;BME280;45705;55.592;37.460;2023-01-27T07:05:42;99432.94;;;-2.58;100.00
58295;BME280;45705;55.592;37.460;2023-01-27T07:08:09;99431.84;;;-2.44;100.00
58295;BME280;45705;55.592;37.460;2023-01-27T07:10:35;99434.69;;;-2.70;100.00
58295;BME280;45705;55.592;37.460;2023-01-27T07:13:06;99437.84;;;-2.55;100.00
58295;BME280;45705;55.592;37.460;2023-01-27T07:15:32;99438.91;;;-2.31;100.00
58295;BME280;45705;55.592;37.460;2023-01-27T07:18:01;99448.03;;;-2.45;100.00
58295;BME280;45705;55.592;37.460;2023-01-27T07:20:27;99447.00;;;-2.19;100.00
58295;BME280;45705;55.592;37.460;2023-01-27T07:23:00;99452.97;;;-2.24;100.00
58295;BME280;45705;55.592;37.460;2023-01-27T07:25:27;99445.31;;;-2.39;100.00
58295;BME280;45705;55.592;37.460;2023-01-27T07:27:55;99450.81;;;-2.33;100.00
58295;BME280;45705;55.592;37.460;2023-01-27T07:30:21;99443.69;;;-2.40;100.00
58295;BME280;45705;55.592;37.460;2023-01-27T07:32:46;99449.50;;;-2.24;100.00
58295;BME280;45705;55.592;37.460;2023-01-27T07:35:15;99452.31;;;-2.19;98.86
58295;BME280;45705;55.592;37.460;2023-01-27T07:37:40;99453.69;;;-2.10;98.54
58295;BME280;45705;55.592;37.460;2023-01-27T07:40:08;99444.16;;;-1.74;97.83
58295;BME280;45705;55.592;37.460;2023-01-27T07:42:34;99451.22;;;-1.86;98.04
58295;BME280;45705;55.592;37.460;2023-01-27T07:44:59;99450.97;;;-1.78;97.67
58295;BME280;45705;55.592;37.460;2023-01-27T07:47:25;99447.53;;;-1.85;97.30
58295;BME280;45705;55.592;37.460;2023-01-27T07:49:51;99462.75;;;-1.92;97.54
58295;BME280;45705;55.592;37.460;2023-01-27T07:52:16;99464.50;;;-2.05;97.52
58295;BME280;45705;55.592;37.460;2023-01-27T07:54:42;99469.78;;;-1.98;98.15
58295;BME280;45705;55.592;37.460;2023-01-27T07:57:08;99466.78;;;-2.33;99.14
58295;BME280;45705;55.592;37.460;2023-01-27T07:59:34;99470.25;;;-2.08;99.43
58295;BME280;45705;55.592;37.460;2023-01-27T08:01:59;99472.69;;;-2.00;99.65
58295;BME280;45705;55.592;37.460;2023-01-27T08:04:25;99468.31;;;-1.94;99.10
58295;BME280;45705;55.592;37.460;2023-01-27T08:06:51;99472.41;;;-1.91;98.89
58295;BME280;45705;55.592;37.460;2023-01-27T08:09:17;99465.31;;;-1.79;98.06
58295;BME280;45705;55.592;37.460;2023-01-27T08:11:43;99463.63;;;-1.73;97.79
58295;BME280;45705;55.592;37.460;2023-01-27T08:14:08;99470.81;;;-1.74;97.88
58295;BME280;45705;55.592;37.460;2023-01-27T08:16:34;99458.66;;;-1.70;97.46
58295;BME280;45705;55.592;37.460;2023-01-27T08:19:00;99469.13;;;-1.50;97.43
58295;BME280;45705;55.592;37.460;2023-01-27T08:21:26;99467.84;;;-1.66;97.67
58295;BME280;45705;55.592;37.460;2023-01-27T08:23:58;99468.38;;;-1.57;97.84
58295;BME280;45705;55.592;37.460;2023-01-27T08:26:25;99466.81;;;-1.46;97.01
58295;BME280;45705;55.592;37.460;2023-01-27T08:28:51;99475.84;;;-1.66;97.64
58295;BME280;45705;55.592;37.460;2023-01-27T08:31:17;99468.53;;;-1.95;99.44
58295;BME280;45705;55.592;37.460;2023-01-27T08:33:48;99486.03;;;-1.81;100.00
58295;BME280;45705;55.592;37.460;2023-01-27T08:36:16;99479.06;;;-1.57;100.00
58295;BME280;45705;55.592;37.460;2023-01-27T08:38:43;99473.47;;;-1.55;100.00
58295;BME280;45705;55.592;37.460;2023-01-27T08:41:12;99477.88;;;-1.43;99.48
58295;BME280;45705;55.592;37.460;2023-01-27T08:43:38;99476.00;;;-1.61;100.00
58295;BME280;45705;55.592;37.460;2023-01-27T08:46:05;99465.59;;;-1.69;100.00
58295;BME280;45705;55.592;37.460;2023-01-27T08:48:32;99473.81;;;-1.45;100.00
58295;BME280;45705;55.592;37.460;2023-01-27T08:50:59;99468.22;;;-1.62;100.00
58295;BME280;45705;55.592;37.460;2023-01-27T08:53:25;99462.53;;;-1.47;100.00
58295;BME280;45705;55.592;37.460;2023-01-27T08:55:53;99468.59;;;-1.40;99.05
58295;BME280;45705;55.592;37.460;2023-01-27T08:58:20;99473.34;;;-1.42;98.70
58295;BME280;45705;55.592;37.460;2023-01-27T09:00:46;99478.09;;;-1.26;97.38
58295;BME280;45705;55.592;37.460;2023-01-27T09:03:12;99477.06;;;-1.43;97.83
58295;BME280;45705;55.592;37.460;2023-01-27T09:05:39;99466.41;;;-1.43;97.75
58295;BME280;45705;55.592;37.460;2023-01-27T09:08:05;99476.97;;;-1.36;97.72
58295;BME280;45705;55.592;37.460;2023-01-27T09:10:31;99465.72;;;-1.20;96.53
58295;BME280;45705;55.592;37.460;2023-01-27T09:12:57;99474.31;;;-1.18;96.60
58295;BME280;45705;55.592;37.460;2023-01-27T09:15:23;99472.34;;;-0.92;95.70
58295;BME280;45705;55.592;37.460;2023-01-27T09:17:48;99477.06;;;-1.43;97.05
58295;BME280;45705;55.592;37.460;2023-01-27T09:20:14;99472.38;;;-1.29;97.33
58295;BME280;45705;55.592;37.460;2023-01-27T09:22:40;99472.75;;;-1.26;96.46
58295;BME280;45705;55.592;37.460;2023-01-27T09:25:08;99467.44;;;-1.26;97.17
58295;BME280;45705;55.592;37.460;2023-01-27T09:27:36;99459.84;;;-1.10;96.81
58295;BME280;45705;55.592;37.460;2023-01-27T09:30:02;99464.00;;;-1.14;98.14
58295;BME280;45705;55.592;37.460;2023-01-27T09:32:29;99463.56;;;-1.11;97.74
58295;BME280;45705;55.592;37.460;2023-01-27T09:34:54;99466.91;;;-1.16;97.38
58295;BME280;45705;55.592;37.460;2023-01-27T09:37:20;99472.00;;;-1.33;99.74
58295;BME280;45705;55.592;37.460;2023-01-27T09:39:50;99473.00;;;-1.71;100.00
58295;BME280;45705;55.592;37.460;2023-01-27T09:42:40;99452.75;;;-1.72;100.00
58295;BME280;45705;55.592;37.460;2023-01-27T09:53:35;99476.28;;;-1.32;100.00
58295;BME280;45705;55.592;37.460;2023-01-27T10:02:02;99472.91;;;-1.39;100.00
58295;BME280;45705;55.592;37.460;2023-01-27T10:04:53;99451.63;;;-1.64;100.00
58295;BME280;45705;55.592;37.460;2023-01-27T10:10:15;99471.22;;;-1.33;100.00
58295;BME280;45705;55.592;37.460;2023-01-27T10:24:31;99468.59;;;-1.22;100.00
58295;BME280;45705;55.592;37.460;2023-01-27T10:27:11;99473.03;;;-1.52;100.00
58295;BME280;45705;55.592;37.460;2023-01-27T10:29:45;99468.16;;;-1.37;100.00
58295;BME280;45705;55.592;37.460;2023-01-27T10:34:53;99475.25;;;-0.94;100.00
58295;BME280;45705;55.592;37.460;2023-01-27T10:37:33;99479.25;;;-1.03;99.37
58295;BME280;45705;55.592;37.460;2023-01-27T10:42:49;99478.25;;;-1.39;100.00
58295;BME280;45705;55.592;37.460;2023-01-27T10:45:26;99458.50;;;-1.01;100.00
58295;BME280;45705;55.592;37.460;2023-01-27T10:48:20;99471.34;;;-1.10;100.00
58295;BME280;45705;55.592;37.460;2023-01-27T10:56:45;99484.53;;;-1.15;100.00
58295;BME280;45705;55.592;37.460;2023-01-27T11:04:39;99495.84;;;-1.01;100.00
58295;BME280;45705;55.592;37.460;2023-01-27T11:07:20;99484.09;;;-0.82;99.55
58295;BME280;45705;55.592;37.460;2023-01-27T11:09:51;99489.75;;;-0.71;98.77
58295;BME280;45705;55.592;37.460;2023-01-27T11:12:28;99485.47;;;-0.91;100.00
58295;BME280;45705;55.592;37.460;2023-01-27T11:14:58;99480.84;;;-0.84;99.91
58295;BME280;45705;55.592;37.460;2023-01-27T11:17:37;99477.59;;;-0.86;99.39
58295;BME280;45705;55.592;37.460;2023-01-27T11:22:55;99493.50;;;-1.09;100.00
58295;BME280;45705;55.592;37.460;2023-01-27T11:25:30;99491.19;;;-0.87;99.78
58295;BME280;45705;55.592;37.460;2023-01-27T11:28:24;99490.25;;;-1.11;100.00
58295;BME280;45705;55.592;37.460;2023-01-27T11:36:32;99482.56;;;-0.89;100.00
58295;BME280;45705;55.592;37.460;2023-01-27T11:38:59;99483.47;;;-0.95;100.00
58295;BME280;45705;55.592;37.460;2023-01-27T11:41:32;99470.06;;;-0.47;98.81
58295;BME280;45705;55.592;37.460;2023-01-27T11:44:04;99477.91;;;-0.94;100.00
58295;BME280;45705;55.592;37.460;2023-01-27T11:46:31;99490.66;;;-0.96;100.00
58295;BME280;45705;55.592;37.460;2023-01-27T11:49:00;99479.41;;;-0.98;100.00
58295;BME280;45705;55.592;37.460;2023-01-27T11:51:35;99482.94;;;-0.86;99.89
58295;BME280;45705;55.592;37.460;2023-01-27T11:54:13;99489.81;;;-1.08;100.00
58295;BME280;45705;55.592;37.460;2023-01-27T11:56:45;99489.66;;;-0.95;100.00
58295;BME280;45705;55.592;37.460;2023-01-27T12:02:00;99490.94;;;-0.86;100.00
58295;BME280;45705;55.592;37.460;2023-01-27T12:04:49;99494.19;;;-0.84;99.95
58295;BME280;45705;55.592;37.460;2023-01-27T12:07:24;99496.97;;;-0.90;100.00
58295;BME280;45705;55.592;37.460;2023-01-27T12:09:55;99501.56;;;-0.79;100.00
58295;BME280;45705;55.592;37.460;2023-01-27T12:12:23;99501.78;;;-0.99;100.00
58295;BME280;45705;55.592;37.460;2023-01-27T12:14:54;99500.09;;;-1.12;100.00
58295;BME280;45705;55.592;37.460;2023-01-27T12:17:31;99502.09;;;-1.07;100.00
58295;BME280;45705;55.592;37.460;2023-01-27T12:20:02;99497.66;;;-1.13;100.00
58295;BME280;45705;55.592;37.460;2023-01-27T12:22:36;99505.63;;;-1.32;100.00
58295;BME280;45705;55.592;37.460;2023-01-27T12:25:06;99504.59;;;-0.94;100.00
58295;BME280;45705;55.592;37.460;2023-01-27T12:27:40;99507.50;;;-0.95;100.00
58295;BME280;45705;55.592;37.460;2023-01-27T12:30:26;99511.00;;;-0.95;100.00
58295;BME280;45705;55.592;37.460;2023-01-27T12:32:53;99510.81;;;-0.82;100.00
58295;BME280;45705;55.592;37.460;2023-01-27T12:35:23;99502.13;;;-0.77;100.00
58295;BME280;45705;55.592;37.460;2023-01-27T12:37:59;99504.84;;;-0.65;100.00
58295;BME280;45705;55.592;37.460;2023-01-27T12:40:27;99505.88;;;-0.66;100.00
58295;BME280;45705;55.592;37.460;2023-01-27T12:43:13;99513.19;;;-0.92;100.00
58295;BME280;45705;55.592;37.460;2023-01-27T12:45:41;99515.88;;;-0.92;100.00
58295;BME280;45705;55.592;37.460;2023-01-27T12:50:54;99512.59;;;-0.75;100.00
58295;BME280;45705;55.592;37.460;2023-01-27T12:53:23;99516.81;;;-0.68;100.00
58295;BME280;45705;55.592;37.460;2023-01-27T12:55:58;99518.31;;;-0.90;100.00
58295;BME280;45705;55.592;37.460;2023-01-27T12:58:32;99525.13;;;-0.76;100.00
58295;BME280;45705;55.592;37.460;2023-01-27T13:01:02;99515.72;;;-0.78;100.00
58295;BME280;45705;55.592;37.460;2023-01-27T13:03:29;99525.66;;;-0.86;100.00
58295;BME280;45705;55.592;37.460;2023-01-27T13:05:57;99522.94;;;-1.16;100.00
58295;BME280;45705;55.592;37.460;2023-01-27T13:08:25;99526.78;;;-1.12;100.00
58295;BME280;45705;55.592;37.460;2023-01-27T13:10:57;99513.94;;;-1.03;100.00
58295;BME280;45705;55.592;37.460;2023-01-27T13:13:28;99524.25;;;-1.07;100.00
58295;BME280;45705;55.592;37.460;2023-01-27T13:16:15;99518.09;;;-0.89;100.00
58295;BME280;45705;55.592;37.460;2023-01-27T13:18:55;99524.75;;;-0.80;100.00
58295;BME280;45705;55.592;37.460;2023-01-27T13:21:40;99527.44;;;-0.98;100.00
58295;BME280;45705;55.592;37.460;2023-01-27T13:24:18;99533.53;;;-0.91;100.00
58295;BME280;45705;55.592;37.460;2023-01-27T13:26:48;99529.38;;;-1.05;100.00
58295;BME280;45705;55.592;37.460;2023-01-27T13:29:19;99535.28;;;-1.03;100.00
58295;BME280;45705;55.592;37.460;2023-01-27T13:34:41;99542.28;;;-1.02;100.00
58295;BME280;45705;55.592;37.460;2023-01-27T13:37:36;99542.84;;;-0.82;100.00
58295;BME280;45705;55.592;37.460;2023-01-27T13:40:28;99544.34;;;-0.86;100.00
58295;BME280;45705;55.592;37.460;2023-01-27T13:43:12;99545.22;;;-0.92;100.00
58295;BME280;45705;55.592;37.460;2023-01-27T13:48:21;99538.88;;;-0.91;100.00
58295;BME280;45705;55.592;37.460;2023-01-27T13:50:55;99542.03;;;-1.19;100.00
58295;BME280;45705;55.592;37.460;2023-01-27T13:53:26;99548.66;;;-0.85;100.00
58295;BME280;45705;55.592;37.460;2023-01-27T14:04:28;99549.81;;;-0.81;100.00
58295;BME280;45705;55.592;37.460;2023-01-27T14:10:21;99542.25;;;-0.65;100.00
58295;BME280;45705;55.592;37.460;2023-01-27T14:18:38;99561.25;;;-0.92;100.00
58295;BME280;45705;55.592;37.460;2023-01-27T14:29:36;99582.13;;;-1.26;100.00
58295;BME280;45705;55.592;37.460;2023-01-27T14:45:48;99593.53;;;-1.37;100.00
58295;BME280;45705;55.592;37.460;2023-01-27T15:02:28;99605.22;;;-1.38;100.00
58295;BME280;45705;55.592;37.460;2023-01-27T15:07:55;99605.88;;;-0.99;100.00